Terminal Aerodrome Forecast
Issued by NWS

Current Version | Previous Version | Text Only | Print | Product List | Glossary On
Versions: 1 2 3 4 5 6 7 8 9 10 11 12 13 14 15
492
FTUS42 KTBW 252337
TAFPIE
TAF
KPIE 252337Z 2600/2624 33007KT P6SM VCTS SCT030CB BKN100
     FM260300 VRB03KT P6SM BKN100 BKN250
     FM260600 05004KT P6SM SCT100 SCT250
     FM261400 08004KT P6SM SCT030 SCT100 BKN250
     FM261700 05006KT P6SM VCTS SCT040CB BKN100
     FM262000 31008KT P6SM VCTS BKN040CB OVC080=

USA.gov is the U.S. government's official web portal to all federal, state and local government web resources and services.